createdAt,value
2023-10-16T00:01:14.903Z,13.50
2023-10-16T00:03:43.591Z,9.70
2023-10-16T00:06:13.145Z,9.40
2023-10-16T00:08:50.187Z,9.00
2023-10-16T00:11:20.390Z,13.40
2023-10-16T00:13:49.200Z,13.70
2023-10-16T00:16:19.215Z,14.00
2023-10-16T00:18:47.176Z,11.00
2023-10-16T00:21:15.616Z,13.10
2023-10-16T00:23:43.652Z,13.70
2023-10-16T00:26:23.205Z,10.10
2023-10-16T00:29:31.986Z,7.90
2023-10-16T00:32:00.508Z,8.50
2023-10-16T00:34:30.242Z,7.70
2023-10-16T00:36:58.352Z,7.10
2023-10-16T00:39:33.225Z,8.10
2023-10-16T00:42:01.248Z,7.00
2023-10-16T00:44:35.206Z,6.60
2023-10-16T00:47:10.636Z,7.10
2023-10-16T00:49:42.290Z,5.90
2023-10-16T00:52:11.790Z,6.40
2023-10-16T00:54:41.497Z,10.00
2023-10-16T00:57:11.985Z,8.40
2023-10-16T00:59:43.925Z,12.50
2023-10-16T01:02:19.003Z,13.30
2023-10-16T01:04:48.804Z,12.50
2023-10-16T01:07:17.573Z,11.70
2023-10-16T01:09:49.233Z,11.00
2023-10-16T01:12:21.586Z,9.80
2023-10-16T01:14:50.071Z,7.70
2023-10-16T01:17:31.096Z,6.50
2023-10-16T01:20:00.838Z,7.00
2023-10-16T01:22:30.962Z,8.70
2023-10-16T01:25:01.255Z,6.10
2023-10-16T01:27:31.507Z,9.20
2023-10-16T01:30:02.966Z,5.70
2023-10-16T01:32:32.793Z,5.90
2023-10-16T01:35:01.803Z,5.10
2023-10-16T01:37:31.421Z,7.90
2023-10-16T01:40:29.043Z,6.60
2023-10-16T01:42:57.932Z,6.20
2023-10-16T01:45:28.840Z,6.90
2023-10-16T01:50:28.282Z,7.30
2023-10-16T01:52:56.439Z,8.10
2023-10-16T01:55:24.455Z,11.50
2023-10-16T01:57:52.430Z,7.50
2023-10-16T02:00:27.838Z,6.50
2023-10-16T02:02:55.878Z,5.10
2023-10-16T02:05:24.655Z,5.70
2023-10-16T02:07:57.348Z,7.40
2023-10-16T02:10:25.895Z,5.40
2023-10-16T02:12:53.998Z,8.40
2023-10-16T02:15:22.861Z,6.80
2023-10-16T02:17:51.588Z,6.90
2023-10-16T02:20:21.578Z,5.50
2023-10-16T02:22:49.760Z,6.60
2023-10-16T02:25:19.266Z,11.50
2023-10-16T02:27:47.654Z,7.20
2023-10-16T02:30:36.407Z,7.40
2023-10-16T02:33:27.697Z,8.80
2023-10-16T02:38:29.911Z,6.50
2023-10-16T02:41:04.537Z,8.80
2023-10-16T02:43:38.431Z,8.10
2023-10-16T02:46:10.280Z,9.20
2023-10-16T02:48:42.706Z,8.00
2023-10-16T02:51:17.624Z,8.40
2023-10-16T02:53:48.323Z,8.90
2023-10-16T02:56:16.398Z,6.40
2023-10-16T02:58:45.050Z,12.50
2023-10-16T03:01:20.120Z,17.90
2023-10-16T03:03:49.630Z,15.90
2023-10-16T03:06:22.159Z,10.30
2023-10-16T03:08:50.404Z,11.20
2023-10-16T03:11:22.187Z,10.60
2023-10-16T03:13:52.944Z,7.60
2023-10-16T03:16:28.395Z,9.40
2023-10-16T03:19:17.619Z,10.40
2023-10-16T03:21:47.005Z,7.60
2023-10-16T03:24:17.059Z,9.60
2023-10-16T03:26:44.986Z,11.10
2023-10-16T03:29:12.936Z,8.00
2023-10-16T03:31:41.388Z,9.20
2023-10-16T03:34:12.542Z,8.30
2023-10-16T03:36:42.618Z,14.60
2023-10-16T03:39:13.343Z,9.50
2023-10-16T03:41:41.418Z,7.80
2023-10-16T03:44:15.712Z,7.70
2023-10-16T03:46:45.499Z,12.90
2023-10-16T03:49:16.296Z,9.80
2023-10-16T03:51:49.600Z,12.00
2023-10-16T03:54:25.415Z,11.00
2023-10-16T03:56:54.698Z,8.20
2023-10-16T03:59:22.829Z,9.70
2023-10-16T04:01:50.795Z,10.70
2023-10-16T04:04:19.614Z,12.60
2023-10-16T04:06:48.194Z,17.80
2023-10-16T04:09:16.118Z,16.30
2023-10-16T04:11:50.126Z,15.10
2023-10-16T04:14:18.523Z,15.20
2023-10-16T04:16:56.277Z,10.70
2023-10-16T04:19:27.570Z,9.20
2023-10-16T04:22:21.557Z,12.10
2023-10-16T04:24:55.636Z,15.50
2023-10-16T04:27:30.709Z,22.60
2023-10-16T04:30:27.610Z,19.80
2023-10-16T04:33:03.448Z,15.50
2023-10-16T04:35:40.537Z,12.90
2023-10-16T04:38:27.217Z,13.20
2023-10-16T04:41:13.776Z,11.20
2023-10-16T04:44:00.467Z,13.50
2023-10-16T04:46:48.550Z,12.90
2023-10-16T04:49:16.784Z,12.20
2023-10-16T04:51:54.039Z,9.30
2023-10-16T04:54:40.847Z,11.00
2023-10-16T04:57:08.892Z,12.80
2023-10-16T04:59:59.697Z,13.10
2023-10-16T05:02:43.060Z,13.70
2023-10-16T05:05:29.749Z,13.30
2023-10-16T05:08:14.591Z,11.50
2023-10-16T05:11:01.474Z,12.70
2023-10-16T05:13:44.311Z,10.60
2023-10-16T05:16:31.307Z,12.70
2023-10-16T05:19:06.047Z,14.40
2023-10-16T05:22:03.608Z,14.50
2023-10-16T05:24:53.985Z,22.30
2023-10-16T05:27:40.574Z,16.90
2023-10-16T05:30:27.746Z,16.10
2023-10-16T05:33:21.837Z,17.00
2023-10-16T05:36:08.385Z,14.60
2023-10-16T05:38:54.927Z,17.00
2023-10-16T05:41:41.677Z,22.60
2023-10-16T05:44:28.552Z,18.70
2023-10-16T05:47:17.836Z,21.00
2023-10-16T05:50:05.991Z,25.00
2023-10-16T05:52:52.918Z,16.80
2023-10-16T05:55:39.499Z,14.30
2023-10-16T05:58:25.883Z,17.90
2023-10-16T06:01:12.859Z,22.80
2023-10-16T06:03:59.548Z,20.40
2023-10-16T06:06:46.290Z,24.20
2023-10-16T06:09:32.776Z,18.70
2023-10-16T06:12:19.283Z,23.80
2023-10-16T06:14:49.560Z,19.90
2023-10-16T06:17:17.831Z,26.10
2023-10-16T06:19:45.786Z,27.70
2023-10-16T06:22:13.912Z,25.40
2023-10-16T06:24:51.091Z,22.80
2023-10-16T06:27:23.452Z,23.70
2023-10-16T06:29:52.156Z,21.80
2023-10-16T06:32:37.170Z,18.80
2023-10-16T06:35:08.914Z,15.30
2023-10-16T06:37:39.720Z,12.40
2023-10-16T06:40:18.438Z,15.80
2023-10-16T06:42:49.243Z,16.50
2023-10-16T06:45:24.113Z,18.90
2023-10-16T06:47:56.221Z,11.00
2023-10-16T06:50:24.196Z,19.90
2023-10-16T06:52:57.570Z,17.50
2023-10-16T06:55:25.783Z,17.60
2023-10-16T06:57:54.238Z,17.90
2023-10-16T07:00:28.752Z,14.00
2023-10-16T07:02:58.347Z,11.60
2023-10-16T07:05:44.110Z,10.70
2023-10-16T07:08:18.949Z,6.80
2023-10-16T07:10:52.951Z,7.70
2023-10-16T07:13:29.786Z,8.90
2023-10-16T07:16:02.070Z,8.20
2023-10-16T07:18:36.948Z,10.80
2023-10-16T07:21:05.379Z,9.10
2023-10-16T07:23:38.515Z,8.30
2023-10-16T07:26:10.346Z,10.20
2023-10-16T07:28:43.185Z,8.90
2023-10-16T07:31:12.532Z,8.10
2023-10-16T07:33:42.785Z,8.20
2023-10-16T07:36:14.099Z,9.50
2023-10-16T07:38:43.108Z,7.60
2023-10-16T07:41:19.918Z,8.10
2023-10-16T07:43:48.442Z,9.00
2023-10-16T07:46:31.705Z,7.50
2023-10-16T07:49:16.983Z,9.60
2023-10-16T07:51:49.196Z,6.90
2023-10-16T07:54:18.324Z,8.10
2023-10-16T07:56:46.644Z,8.50
2023-10-16T07:59:19.868Z,6.60
2023-10-16T08:01:53.826Z,8.90
2023-10-16T08:04:22.573Z,9.40
2023-10-16T08:06:53.792Z,7.80
2023-10-16T08:09:25.248Z,8.70
2023-10-16T08:11:59.121Z,7.50
2023-10-16T08:14:33.097Z,13.20
2023-10-16T08:17:07.179Z,8.30
2023-10-16T08:19:36.077Z,10.20
2023-10-16T08:22:05.362Z,9.70
2023-10-16T08:24:33.448Z,10.50
2023-10-16T08:27:31.454Z,10.70
2023-10-16T08:30:19.150Z,5.90
2023-10-16T08:32:48.684Z,13.00
2023-10-16T08:35:23.159Z,7.30
2023-10-16T08:37:59.913Z,10.50
2023-10-16T08:40:40.546Z,7.40
2023-10-16T08:43:09.438Z,7.50
2023-10-16T08:45:49.500Z,8.00
2023-10-16T08:48:23.294Z,11.90
2023-10-16T08:50:59.420Z,10.10
2023-10-16T08:53:34.146Z,8.90
2023-10-16T08:56:10.875Z,10.20
2023-10-16T08:58:47.623Z,9.30
2023-10-16T09:01:18.821Z,7.90
2023-10-16T09:03:58.125Z,8.80
2023-10-16T09:06:26.137Z,9.10
2023-10-16T09:08:55.784Z,8.60
2023-10-16T09:11:26.361Z,7.20
2023-10-16T09:13:54.567Z,7.70
2023-10-16T09:16:33.149Z,7.80
2023-10-16T09:19:08.086Z,8.40
2023-10-16T09:21:39.930Z,5.70
2023-10-16T09:24:08.542Z,11.00
2023-10-16T09:26:39.493Z,9.10
2023-10-16T09:29:16.609Z,8.50
2023-10-16T09:31:49.458Z,7.60
2023-10-16T09:34:22.295Z,8.90
2023-10-16T09:37:10.382Z,6.80
2023-10-16T09:39:41.587Z,11.50
2023-10-16T09:42:13.679Z,6.20
2023-10-16T09:44:58.084Z,8.80
2023-10-16T09:47:27.665Z,10.60
2023-10-16T09:49:59.538Z,9.70
2023-10-16T09:52:34.576Z,10.30
2023-10-16T09:55:06.826Z,7.00
2023-10-16T09:57:39.424Z,8.20
2023-10-16T10:00:30.149Z,7.40
2023-10-16T10:03:13.952Z,5.50
2023-10-16T10:06:08.267Z,7.70
2023-10-16T10:08:54.710Z,11.40
2023-10-16T10:11:39.746Z,7.20
2023-10-16T10:14:22.000Z,9.70
2023-10-16T10:16:52.267Z,7.50
2023-10-16T10:19:32.781Z,5.80
2023-10-16T10:22:12.811Z,7.10
2023-10-16T10:24:47.114Z,5.10
2023-10-16T10:27:18.102Z,9.70
2023-10-16T10:29:50.153Z,7.20
2023-10-16T10:32:18.231Z,9.00
2023-10-16T10:34:46.698Z,7.30
2023-10-16T10:37:45.899Z,10.30
2023-10-16T10:40:23.670Z,14.00
2023-10-16T10:42:58.812Z,15.10
2023-10-16T10:45:35.559Z,9.70
2023-10-16T10:48:10.565Z,9.40
2023-10-16T10:50:40.567Z,7.20
2023-10-16T10:53:15.449Z,10.20
2023-10-16T10:55:59.682Z,7.80
2023-10-16T10:58:33.168Z,7.30
2023-10-16T11:01:17.694Z,7.60
2023-10-16T11:03:47.630Z,6.90
2023-10-16T11:06:20.055Z,10.70
2023-10-16T11:08:49.084Z,6.90
2023-10-16T11:11:17.445Z,9.30
2023-10-16T11:13:49.390Z,6.70
2023-10-16T11:16:19.256Z,10.10
2023-10-16T11:19:10.147Z,6.40
2023-10-16T11:21:46.759Z,7.40
2023-10-16T11:24:15.014Z,5.80
2023-10-16T11:26:43.634Z,8.40
2023-10-16T11:29:13.615Z,5.80
2023-10-16T11:31:45.718Z,6.20
2023-10-16T11:34:22.798Z,5.90
2023-10-16T11:36:52.611Z,6.70
2023-10-16T11:39:21.731Z,8.50
2023-10-16T11:41:50.563Z,9.00
2023-10-16T11:44:20.380Z,12.80
2023-10-16T11:46:53.788Z,11.20
2023-10-16T11:49:23.090Z,8.70
2023-10-16T11:51:59.893Z,7.60
2023-10-16T11:54:30.547Z,8.00
2023-10-16T11:57:02.221Z,9.70
2023-10-16T11:59:33.345Z,4.50
2023-10-16T12:02:04.573Z,4.90
2023-10-16T12:04:34.087Z,11.20
2023-10-16T12:07:02.866Z,10.10
2023-10-16T12:09:38.700Z,7.30
2023-10-16T12:12:08.556Z,5.60
2023-10-16T12:14:39.554Z,6.80
2023-10-16T12:17:13.571Z,7.80
2023-10-16T12:19:42.172Z,7.20
2023-10-16T12:22:10.405Z,8.20
2023-10-16T12:24:40.349Z,9.00
2023-10-16T12:27:09.667Z,6.30
2023-10-16T12:29:37.678Z,6.50
2023-10-16T12:32:05.886Z,4.30
2023-10-16T12:34:34.237Z,3.40
2023-10-16T12:37:07.950Z,6.10
2023-10-16T12:39:49.483Z,4.60
2023-10-16T12:42:17.526Z,4.80
2023-10-16T12:44:46.418Z,6.20
2023-10-16T12:49:45.950Z,7.40
2023-10-16T12:52:13.864Z,13.10
2023-10-16T12:54:45.317Z,9.00
2023-10-16T12:57:13.329Z,5.40
2023-10-16T12:59:41.876Z,5.70
2023-10-16T13:02:10.963Z,12.60
2023-10-16T13:04:39.178Z,8.90
2023-10-16T13:07:08.390Z,7.90
2023-10-16T13:09:37.123Z,4.00
2023-10-16T13:12:09.640Z,7.20
2023-10-16T13:14:38.239Z,6.80
2023-10-16T13:17:09.688Z,10.10
2023-10-16T13:19:37.981Z,8.20
2023-10-16T13:22:11.869Z,11.80
2023-10-16T13:24:42.469Z,7.30
2023-10-16T13:27:10.494Z,3.40
2023-10-16T13:29:41.377Z,3.70
2023-10-16T13:32:10.732Z,4.20
2023-10-16T13:34:39.883Z,4.70
2023-10-16T13:37:10.824Z,4.50
2023-10-16T13:39:41.759Z,4.80
2023-10-16T13:42:10.243Z,5.30
2023-10-16T13:44:38.566Z,3.90
2023-10-16T13:47:06.810Z,4.50
2023-10-16T13:49:38.544Z,6.80
2023-10-16T13:52:10.655Z,4.10
2023-10-16T13:54:42.156Z,9.40
2023-10-16T13:57:11.051Z,4.40
2023-10-16T13:59:40.638Z,4.90
2023-10-16T14:02:08.886Z,3.60
2023-10-16T14:04:37.010Z,6.10
2023-10-16T14:09:58.170Z,6.60
2023-10-16T14:12:27.111Z,7.90
2023-10-16T14:14:55.065Z,4.90
2023-10-16T14:17:23.057Z,8.70
2023-10-16T14:19:50.977Z,5.20
2023-10-16T14:22:19.040Z,14.90
2023-10-16T14:24:47.165Z,15.80
2023-10-16T14:27:19.983Z,8.10
2023-10-16T14:29:50.077Z,5.90
2023-10-16T14:32:18.152Z,10.80
2023-10-16T14:34:46.258Z,5.80
2023-10-16T14:37:14.928Z,6.00
2023-10-16T14:39:43.020Z,57.40
2023-10-16T14:42:12.508Z,43.90
2023-10-16T14:44:41.716Z,18.90
2023-10-16T14:47:10.696Z,16.30
2023-10-16T14:49:39.399Z,10.10
2023-10-16T14:52:07.439Z,13.80
2023-10-16T14:54:36.296Z,16.50
2023-10-16T14:57:05.186Z,7.50
2023-10-16T14:59:36.516Z,21.40
2023-10-16T15:02:04.951Z,37.50
2023-10-16T15:04:33.888Z,83.10
2023-10-16T15:07:12.692Z,31.20
2023-10-16T15:09:41.545Z,20.80
2023-10-16T15:12:09.451Z,8.30
2023-10-16T15:14:37.446Z,10.10
2023-10-16T15:17:06.859Z,10.40
2023-10-16T15:19:39.999Z,10.80
2023-10-16T15:22:08.481Z,11.10
2023-10-16T15:24:38.376Z,18.00
2023-10-16T15:27:06.666Z,23.10
2023-10-16T15:29:34.664Z,19.70
2023-10-16T15:32:02.672Z,28.00
2023-10-16T15:34:30.851Z,22.50
2023-10-16T15:36:59.321Z,19.30
2023-10-16T15:39:28.659Z,14.50
2023-10-16T15:41:56.587Z,13.80
2023-10-16T15:44:24.479Z,14.20
2023-10-16T15:46:52.617Z,12.50
2023-10-16T15:49:21.294Z,9.70
2023-10-16T15:51:54.008Z,9.80
2023-10-16T15:54:24.059Z,15.20
2023-10-16T15:56:53.356Z,14.10
2023-10-16T15:59:22.614Z,11.80
2023-10-16T16:01:50.911Z,9.50
2023-10-16T16:04:22.146Z,10.20
2023-10-16T16:06:50.672Z,8.30
2023-10-16T16:09:20.776Z,12.30
2023-10-16T16:11:48.822Z,11.50
2023-10-16T16:14:19.258Z,12.70
2023-10-16T16:16:52.740Z,18.40
2023-10-16T16:19:21.129Z,20.10
2023-10-16T16:21:51.316Z,21.70
2023-10-16T16:24:20.509Z,20.90
2023-10-16T16:26:50.735Z,19.80
2023-10-16T16:29:19.074Z,21.10
2023-10-16T16:31:47.415Z,16.50
2023-10-16T16:34:15.337Z,17.30
2023-10-16T16:36:43.341Z,24.20
2023-10-16T16:39:14.036Z,18.70
2023-10-16T16:41:42.783Z,14.30
2023-10-16T16:44:10.968Z,16.30
2023-10-16T16:46:39.008Z,12.40
2023-10-16T16:49:11.753Z,9.30
2023-10-16T16:51:40.534Z,7.80
2023-10-16T16:54:08.630Z,9.80
2023-10-16T16:56:38.750Z,5.90
2023-10-16T16:59:10.808Z,11.00
2023-10-16T17:01:39.099Z,9.50
2023-10-16T17:04:07.229Z,10.40
2023-10-16T17:06:35.314Z,13.10
2023-10-16T17:09:03.519Z,15.60
2023-10-16T17:11:31.577Z,15.50
2023-10-16T17:14:01.791Z,16.40
2023-10-16T17:18:59.508Z,19.00
2023-10-16T17:21:28.744Z,19.90
2023-10-16T17:24:02.290Z,23.30
2023-10-16T17:26:31.698Z,22.80
2023-10-16T17:29:01.380Z,22.60
2023-10-16T17:31:29.301Z,22.30
2023-10-16T17:33:58.360Z,29.40
2023-10-16T17:36:26.393Z,25.00
2023-10-16T17:38:54.341Z,20.00
2023-10-16T17:41:22.886Z,18.10
2023-10-16T17:43:51.506Z,18.40
2023-10-16T17:46:20.417Z,16.00
2023-10-16T17:48:54.172Z,21.70
2023-10-16T17:51:22.235Z,37.20
2023-10-16T17:53:50.464Z,50.50
2023-10-16T17:56:21.500Z,52.00
2023-10-16T17:58:49.837Z,45.90
2023-10-16T18:01:18.582Z,52.70
2023-10-16T18:03:46.866Z,43.30
2023-10-16T18:06:15.667Z,32.80
2023-10-16T18:08:47.536Z,33.40
2023-10-16T18:11:18.254Z,26.60
2023-10-16T18:13:48.235Z,29.90
2023-10-16T18:16:16.272Z,21.50
2023-10-16T18:18:45.217Z,25.20
2023-10-16T18:21:13.749Z,27.40
2023-10-16T18:23:42.361Z,26.50
2023-10-16T18:26:20.285Z,24.50
2023-10-16T18:28:49.410Z,41.40
2023-10-16T18:31:18.575Z,42.90
2023-10-16T18:33:49.905Z,44.20
2023-10-16T18:36:18.174Z,34.00
2023-10-16T18:38:51.245Z,31.20
2023-10-16T18:41:21.078Z,28.30
2023-10-16T18:43:50.940Z,23.90
2023-10-16T18:46:19.249Z,25.10
2023-10-16T18:48:51.044Z,24.20
2023-10-16T18:51:19.137Z,19.40
2023-10-16T18:53:47.310Z,20.60
2023-10-16T18:56:15.681Z,23.10
2023-10-16T18:58:44.836Z,28.70
2023-10-16T19:01:17.053Z,28.90
2023-10-16T19:03:45.122Z,20.10
2023-10-16T19:06:16.594Z,19.70
2023-10-16T19:08:48.305Z,17.40
2023-10-16T19:11:16.210Z,16.30
2023-10-16T19:13:44.261Z,20.30
2023-10-16T19:16:12.309Z,20.20
2023-10-16T19:18:43.672Z,22.00
2023-10-16T19:21:12.184Z,17.90
2023-10-16T19:23:40.317Z,18.20
2023-10-16T19:26:14.426Z,18.50
2023-10-16T19:28:43.847Z,19.60
2023-10-16T19:31:18.733Z,23.20
2023-10-16T19:33:48.124Z,24.10
2023-10-16T19:36:21.656Z,31.50
2023-10-16T19:38:52.634Z,31.80
2023-10-16T19:41:23.665Z,29.90
2023-10-16T19:46:21.337Z,24.60
2023-10-16T19:48:50.396Z,24.20
2023-10-16T19:51:22.699Z,23.60
2023-10-16T19:53:56.441Z,21.00
2023-10-16T19:56:25.533Z,18.60
2023-10-16T19:58:54.027Z,14.80
2023-10-16T20:01:23.632Z,15.10
2023-10-16T20:03:53.573Z,15.40
2023-10-16T20:06:22.367Z,18.60
2023-10-16T20:08:51.431Z,15.60
2023-10-16T20:11:19.514Z,17.30
2023-10-16T20:13:50.551Z,15.60
2023-10-16T20:16:18.522Z,14.10
2023-10-16T20:18:46.486Z,13.70
2023-10-16T20:21:19.371Z,14.90
2023-10-16T20:23:48.789Z,14.90
2023-10-16T20:26:18.554Z,14.90
2023-10-16T20:28:50.888Z,13.90
2023-10-16T20:31:20.082Z,10.80
2023-10-16T20:33:50.137Z,12.00
2023-10-16T20:36:19.017Z,13.00
2023-10-16T20:38:47.616Z,14.00
2023-10-16T20:41:15.715Z,12.10
2023-10-16T20:43:43.659Z,13.10
2023-10-16T20:46:11.593Z,18.30
2023-10-16T20:48:39.656Z,16.50
2023-10-16T20:51:08.438Z,17.70
2023-10-16T20:53:36.412Z,17.90
2023-10-16T20:56:07.769Z,16.10
2023-10-16T20:58:35.877Z,16.60
2023-10-16T21:01:07.937Z,18.80
2023-10-16T21:03:36.708Z,14.40
2023-10-16T21:06:05.757Z,16.70
2023-10-16T21:08:33.916Z,14.60
2023-10-16T21:11:02.023Z,16.20
2023-10-16T21:13:30.022Z,15.50
2023-10-16T21:15:58.066Z,15.20
2023-10-16T21:18:27.522Z,13.90
2023-10-16T21:20:59.297Z,15.30
2023-10-16T21:23:27.277Z,17.50
2023-10-16T21:25:55.458Z,18.20
2023-10-16T21:28:24.082Z,20.60
2023-10-16T21:30:58.115Z,19.60
2023-10-16T21:33:26.992Z,13.60
2023-10-16T21:36:05.069Z,15.70
2023-10-16T21:38:33.457Z,12.00
2023-10-16T21:41:02.299Z,12.90
2023-10-16T21:43:30.860Z,12.00
2023-10-16T21:46:01.761Z,11.90
2023-10-16T21:48:30.126Z,13.50
2023-10-16T21:50:58.384Z,12.50
2023-10-16T21:53:28.448Z,14.00
2023-10-16T21:55:56.695Z,9.90
2023-10-16T21:58:25.498Z,13.80
2023-10-16T22:00:59.631Z,9.60
2023-10-16T22:03:28.387Z,10.60
2023-10-16T22:05:57.475Z,10.40
2023-10-16T22:08:29.850Z,9.60
2023-10-16T22:11:02.194Z,10.80
2023-10-16T22:13:30.832Z,10.70
2023-10-16T22:16:00.394Z,14.70
2023-10-16T22:18:29.242Z,12.60
2023-10-16T22:21:07.150Z,12.90
2023-10-16T22:23:44.476Z,12.70
2023-10-16T22:26:14.053Z,13.10
2023-10-16T22:28:42.803Z,11.80
2023-10-16T22:31:10.904Z,11.00
2023-10-16T22:33:39.126Z,10.20
2023-10-16T22:36:09.946Z,11.40
2023-10-16T22:38:38.806Z,11.70
2023-10-16T22:41:07.533Z,12.60
2023-10-16T22:43:35.508Z,14.10
2023-10-16T22:46:07.105Z,13.00
2023-10-16T22:48:36.902Z,11.70
2023-10-16T22:51:05.224Z,10.80
2023-10-16T22:53:33.749Z,10.70
2023-10-16T22:56:03.543Z,12.00
2023-10-16T22:58:32.566Z,13.40
2023-10-16T23:01:01.922Z,8.80
2023-10-16T23:03:30.264Z,10.20
2023-10-16T23:06:00.600Z,10.80
2023-10-16T23:08:42.604Z,9.40
2023-10-16T23:11:11.393Z,12.40
2023-10-16T23:13:47.492Z,12.70
2023-10-16T23:16:15.624Z,11.70
2023-10-16T23:18:43.933Z,10.40
2023-10-16T23:21:12.201Z,10.20
2023-10-16T23:23:41.641Z,9.40
2023-10-16T23:26:09.621Z,12.30
2023-10-16T23:28:38.735Z,9.60
2023-10-16T23:31:11.062Z,11.40
2023-10-16T23:33:45.116Z,11.60
2023-10-16T23:36:14.337Z,13.30
2023-10-16T23:38:45.281Z,12.40
2023-10-16T23:44:13.656Z,9.40
2023-10-16T23:46:45.927Z,12.40
2023-10-16T23:49:23.724Z,12.40
2023-10-16T23:51:56.780Z,11.00
2023-10-16T23:54:43.265Z,13.20
2023-10-16T23:57:15.948Z,20.80
2023-10-16T23:59:49.872Z,29.00
